Flight Track Log - Related Links

Times and Time Zones

All times are in EST time to prevent confusion due to time zone crossing. See the PDT4226 flight status page for this flight to view local times or setup timezone preferences in your user account.

Time Position Orientation Groundspeed Altitude Reporting Facility
EST Latitude Longitude Course Direction KTS MPH feet Rate Location/Type
Mon 01:58:00 PM 42.0059 -75.9134 180° South  Level Estimated
Mon 01:59:00 PM 41.9384 -75.8914 180° South  Level Estimated
Mon 02:00:00 PM 41.8698 -75.9067 189° South  Level FlightAware Approximate
Mon 02:01:00 PM 41.8013 -75.9219 189° South  Level FlightAware Approximate
Mon 02:02:00 PM 41.7342 -75.8976 154° Southeast  Level Estimated
Mon 02:03:00 PM 41.6672 -75.8732 160° South  Level Estimated
Mon 02:04:00 PM 41.6001 -75.8490 159° South  Level Estimated
Mon 02:05:00 PM 41.5349 -75.8170 160° South  Level FlightAware Approximate
Mon 02:06:00 PM 41.4677 -75.7932 153° Southeast  Level Estimated
Mon 02:07:00 PM 41.4006 -75.7694 161° South  Level Estimated
Mon 02:08:00 PM 41.3380 -75.7291 154° Southeast  Level FlightAware Approximate
Mon 02:09:00 PM 41.2707 -75.7062 162° South  Level Estimated
Mon 02:10:00 PM 41.2059 -75.6727 159° South  Level FlightAware Approximate
Mon 02:11:00 PM 41.1412 -75.6393 159° South  Level FlightAware Approximate
Mon 02:12:00 PM 41.0764 -75.6059 159° South  Level FlightAware Approximate
Mon 02:13:00 PM 41.0116 -75.5726 159° South  Level FlightAware Approximate
Mon 02:14:00 PM 40.9438 -75.5526 163° South  Level Estimated
Mon 02:15:00 PM 40.8781 -75.5228 161° South  Level FlightAware Approximate
Mon 02:16:00 PM 40.8123 -75.4931 161° South  Level FlightAware Approximate
Mon 02:17:00 PM 40.7466 -75.4635 161° South  Level FlightAware Approximate
Mon 02:18:00 PM 40.6784 -75.4459 190° South  Level Estimated
Mon 02:19:00 PM 40.6107 -75.4665 193° South  Level FlightAware Approximate
Mon 02:20:00 PM 40.5430 -75.4870 193° South  Level FlightAware Approximate
Mon 02:21:00 PM 40.4761 -75.4622 187° South  Level Estimated
Mon 02:22:00 PM 40.4092 -75.4375 190° South  Level Estimated
Mon 02:23:00 PM 40.3481 -75.4808 208° Southwest  Level FlightAware Approximate
Mon 02:24:00 PM 40.2869 -75.5240 208° Southwest  Level FlightAware Approximate
Mon 02:24:20 PM 40.6667 -75.6667 123° Southeast 211 243 8,000  Level Philadelphia TRACON
Mon 02:25:00 PM 40.2254 -75.4817 143° Southeast  Level Estimated
Mon 02:25:50 PM 40.5833 -75.6333 163° South 227 261 7,400  Level Philadelphia TRACON
Mon 02:26:00 PM 40.1638 -75.4395 143° Southeast  Level Estimated
Mon 02:26:50 PM 40.5167 -75.6167 169° South 235 270 7,000  Level Philadelphia TRACON
Mon 02:27:00 PM 40.1022 -75.3974 143° Southeast  Level Estimated
Mon 02:27:50 PM 40.4500 -75.6167 180° South 220 253 7,100  Level Philadelphia TRACON
Mon 02:28:00 PM 40.0407 -75.3554 143° Southeast  Level Estimated
Mon 02:28:50 PM 40.4000 -75.6000 166° South 216 249 7,100  Level Philadelphia TRACON
Mon 02:29:00 PM 39.9711 -75.3255 123° Southeast  Level FlightAware Approximate
Mon 02:29:50 PM 40.3333 -75.5833 169° South 217 250 7,100  Level Philadelphia TRACON
Mon 02:30:44 PM 40.2833 -75.5833 180° South 216 249 6,900 -500 Descending Philadelphia TRACON
Mon 02:31:50 PM 40.2000 -75.5667 171° South 247 284 6,100 -429 Descending Philadelphia TRACON
Mon 02:32:50 PM 40.1500 -75.5667 180° South 224 258 6,000 -550 Descending Philadelphia TRACON
Mon 02:33:50 PM 40.0833 -75.5500 169° South 235 270 5,000 -950 Descending Philadelphia TRACON
Mon 02:34:50 PM 40.0167 -75.5167 159° South 240 276 4,100 -500 Descending Philadelphia TRACON
Mon 02:35:50 PM 39.9667 -75.4667 143° Southeast 221 254 4,000  Descending Philadelphia TRACON
Mon 02:36:50 PM 39.9167 -75.5167 217° Southwest 214 246 4,100 50 Climbing Philadelphia TRACON
Mon 02:37:50 PM 39.9000 -75.5667 247° West 213 245 4,100  Level Philadelphia TRACON
Mon 02:38:44 PM 39.8667 -75.6333 237° Southwest 213 245 4,100  Level Philadelphia TRACON
Mon 02:39:50 PM 39.8167 -75.7000 226° Southwest 213 245 4,100  Level Philadelphia TRACON
Mon 02:40:56 PM 39.7833 -75.6667 142° Southeast 193 222 4,100  Level Philadelphia TRACON
Mon 02:41:50 PM 39.8000 -75.6167 67° East 173 199 4,100  Level Philadelphia TRACON
Mon 02:42:56 PM 39.8000 -75.5500 90° East 169 194 4,100 -250 Level Philadelphia TRACON
Mon 02:43:50 PM 39.8167 -75.5000 67° East 165 190 3,600 -684 Descending Philadelphia TRACON
Mon 02:44:50 PM 39.8333 -75.4500 67° East 148 170 2,800 -762 Descending Philadelphia TRACON
Mon 02:45:56 PM 39.8333 -75.3833 90° East 134 154 2,000 -700 Descending Philadelphia TRACON
Mon 02:46:50 PM 39.8500 -75.3500 57° Northeast 119 137 1,400 -700 Descending Philadelphia TRACON
Mon 02:47:56 PM 39.8500 -75.3000 90° East 118 136 600 -727 Descending Philadelphia TRACON

Login

Don't have an account? Register now (free) for customized features, flight alerts, and more!